Time;durP1;ratioP1;P1;durP2;ratioP2;P2;SDS_P1;SDS_P2;PMS_P1;PMS_P2;Temp;Humidity;BMP_temperature;BMP_pressure;BME280_temperature;BME280_humidity;BME280_pressure;Samples;Min_cycle;Max_cycle;Signal;HPM_P1;HPM_P2
2022/06/03 00:02:37;;;;;;;13.55;6.60;;;;;;;19.42;81.64;100136.94;5086773;28;20039;-30
2022/06/03 00:05:15;;;;;;;11.18;6.13;;;;;;;19.61;80.28;100129.81;4996714;28;20081;-31
2022/06/03 00:07:56;;;;;;;10.70;5.78;;;;;;;19.67;79.39;100128.69;5086937;28;20472;-29
2022/06/03 00:10:33;;;;;;;10.70;5.78;;;;;;;19.50;81.65;100128.25;5086749;28;20035;-30
2022/06/03 00:13:04;;;;;;;10.90;5.60;;;;;;;19.56;82.85;100129.84;5087108;28;20032;-30
2022/06/03 00:15:35;;;;;;;11.95;6.15;;;;;;;19.60;81.47;100122.00;5086702;28;20028;-31
2022/06/03 00:18:17;;;;;;;12.25;6.47;;;;;;;19.43;82.49;100127.72;5086922;28;20036;-37
2022/06/03 00:20:54;;;;;;;11.38;6.07;;;;;;;19.52;81.81;100119.84;5086715;28;20032;-29
2022/06/03 00:23:41;;;;;;;9.40;6.20;;;;;;;19.53;81.24;100116.84;5068604;28;20028;-30
2022/06/03 00:26:18;;;;;;;10.15;6.05;;;;;;;19.37;83.00;100120.69;5086995;28;20043;-29
2022/06/03 00:28:46;;;;;;;10.02;6.47;;;;;;;19.19;82.90;100122.94;5088578;28;20497;-31
2022/06/03 00:31:38;;;;;;;10.82;6.13;;;;;;;19.15;84.70;100127.28;5090972;28;20036;-29
2022/06/03 00:34:44;;;;;;;14.73;6.55;;;;;;;19.19;83.80;100120.25;5072225;28;20040;-30
2022/06/03 00:37:16;;;;;;;13.32;6.78;;;;;;;19.31;83.76;100113.69;5044673;28;20554;-31
2022/06/03 00:39:41;;;;;;;12.45;7.15;;;;;;;19.26;83.61;100123.44;5090667;28;20107;-29
2022/06/03 00:42:07;;;;;;;11.23;5.93;;;;;;;19.25;82.11;100121.84;5090755;28;20115;-29
2022/06/03 00:44:54;;;;;;;9.65;6.40;;;;;;;19.41;82.36;100116.38;5090763;28;20103;-30
2022/06/03 00:47:39;;;;;;;10.68;6.10;;;;;;;19.17;81.62;100108.09;5090621;28;20035;-29
2022/06/03 00:50:22;;;;;;;11.20;6.43;;;;;;;18.97;84.22;100117.03;5090509;28;20081;-29
2022/06/03 00:53:16;;;;;;;11.20;5.85;;;;;;;18.76;84.97;100117.03;5071982;28;20047;-29
2022/06/03 00:56:22;;;;;;;15.88;6.22;;;;;;;18.99;84.69;100120.28;5090298;28;20028;-33
2022/06/03 00:58:52;;;;;;;14.77;6.30;;;;;;;18.87;82.38;100104.34;5090118;28;20036;-29
2022/06/03 01:01:24;;;;;;;10.20;6.35;;;;;;;19.01;82.22;100124.31;5090673;28;20669;-29
2022/06/03 01:04:07;;;;;;;11.02;5.85;;;;;;;18.90;83.36;100119.22;5090295;28;20416;-29
2022/06/03 01:07:15;;;;;;;12.98;6.00;;;;;;;18.95;82.01;100121.91;5090365;28;20036;-29
2022/06/03 01:09:55;;;;;;;;;;;;;;;18.99;82.65;100112.97;5077064;28;20036;-34
2022/06/03 01:12:42;;;;;;;10.50;6.03;;;;;;;18.73;85.69;100120.28;5090178;28;20064;-30
2022/06/03 01:15:14;;;;;;;12.60;6.93;;;;;;;18.82;84.26;100113.28;5090022;28;20028;-29
2022/06/03 01:17:58;;;;;;;8.93;6.05;;;;;;;18.92;85.12;100111.63;5090165;28;20552;-33
2022/06/03 01:20:43;;;;;;;13.00;7.47;;;;;;;18.79;86.38;100115.72;5090150;28;20593;-29
2022/06/03 01:23:45;;;;;;;11.38;6.65;;;;;;;18.65;87.83;100115.41;5090078;28;20035;-30
2022/06/03 01:26:22;;;;;;;11.82;6.63;;;;;;;18.30;88.37;100095.44;5071633;28;20070;-30
2022/06/03 01:29:09;;;;;;;11.80;7.78;;;;;;;18.55;87.84;100118.13;5089933;28;20040;-30
2022/06/03 01:32:17;;;;;;;11.05;6.85;;;;;;;18.67;87.30;100110.56;5089610;28;20418;-29
2022/06/03 01:35:12;;;;;;;11.40;6.45;;;;;;;18.50;88.25;100094.66;5089208;28;20157;-30
2022/06/03 01:37:48;;;;;;;11.05;6.70;;;;;;;18.65;88.32;100107.31;5073040;28;20550;-29
2022/06/03 01:40:19;;;;;;;10.48;6.78;;;;;;;18.58;88.91;100104.09;5089077;28;20043;-28
2022/06/03 01:42:51;;;;;;;11.80;6.80;;;;;;;18.64;89.11;100101.13;5089444;28;20066;-31
2022/06/03 01:45:32;;;;;;;12.02;6.50;;;;;;;18.68;87.64;100083.28;5089434;28;20060;-29
2022/06/03 01:48:03;;;;;;;13.77;6.82;;;;;;;18.78;85.71;100104.06;5089266;28;20046;-31
2022/06/03 01:51:05;;;;;;;11.05;6.93;;;;;;;19.10;84.87;100108.34;5089162;28;20024;-29
2022/06/03 01:53:34;;;;;;;11.63;6.93;;;;;;;19.18;84.86;100120.50;5089277;28;20028;-28
2022/06/03 01:56:11;;;;;;;11.88;6.70;;;;;;;19.14;85.03;100119.44;5089266;28;20020;-32
2022/06/03 01:59:04;;;;;;;11.23;6.47;;;;;;;19.12;85.25;100127.81;5089058;28;20024;-29
2022/06/03 02:01:40;;;;;;;11.95;6.95;;;;;;;18.84;83.86;100111.13;5089207;28;20044;-28
2022/06/03 02:04:14;;;;;;;10.88;6.47;;;;;;;18.90;83.50;100121.91;5089363;28;20056;-29
2022/06/03 02:07:14;;;;;;;14.43;7.07;;;;;;;19.00;83.51;100124.59;5089001;28;20078;-29
2022/06/03 02:10:16;;;;;;;13.05;6.72;;;;;;;19.11;84.09;100126.22;5089028;28;20032;-32
2022/06/03 02:13:00;;;;;;;12.45;6.75;;;;;;;18.83;86.40;100124.91;5070584;28;20032;-29
2022/06/03 02:15:34;;;;;;;11.15;6.72;;;;;;;18.99;83.79;100128.41;5088958;28;20419;-32
2022/06/03 02:18:13;;;;;;;11.20;7.28;;;;;;;18.77;84.38;100139.47;5089062;28;20031;-33
2022/06/03 02:20:47;;;;;;;12.15;6.93;;;;;;;19.02;83.51;100138.66;5089256;28;20051;-28
2022/06/03 02:23:31;;;;;;;11.68;6.72;;;;;;;19.11;83.46;100137.00;5089053;28;20089;-30
2022/06/03 02:26:21;;;;;;;11.73;7.15;;;;;;;19.01;83.69;100147.84;5088674;28;20043;-29
2022/06/03 02:32:13;;;;;;;8.52;5.97;;;;;;;18.82;83.82;100156.53;5088332;28;20607;-29
2022/06/03 02:34:56;;;;;;;13.65;6.72;;;;;;;18.92;83.41;100146.78;5087956;28;20556;-32
2022/06/03 02:37:49;;;;;;;12.43;6.25;;;;;;;18.91;82.55;100143.25;5088927;28;20031;-28
2022/06/03 02:40:52;;;;;;;10.70;6.80;;;;;;;18.82;82.36;100140.31;5088475;28;20032;-33
2022/06/03 02:43:45;;;;;;;13.43;6.55;;;;;;;18.93;81.85;100145.69;5032712;28;20047;-29
2022/06/03 02:46:29;;;;;;;9.77;6.63;;;;;;;18.81;82.77;100138.66;5088493;28;20035;-29
2022/06/03 02:49:21;;;;;;;13.75;7.60;;;;;;;18.85;81.24;100142.44;5087880;28;20020;-28
2022/06/03 02:52:08;;;;;;;12.82;6.88;;;;;;;18.55;83.79;100155.94;5069256;28;20057;-29
2022/06/03 02:54:37;;;;;;;13.75;6.88;;;;;;;18.37;85.11;100139.19;5088154;28;20028;-32
2022/06/03 02:57:19;;;;;;;12.80;7.57;;;;;;;18.61;83.37;100146.75;5087846;28;20110;-33
2022/06/03 03:00:11;;;;;;;12.65;7.00;;;;;;;18.69;82.16;100167.81;5088180;28;20611;-28
2022/06/03 03:02:43;;;;;;;12.98;6.85;;;;;;;18.62;83.22;100161.91;5058011;28;20040;-28
2022/06/03 03:05:43;;;;;;;10.50;6.95;;;;;;;18.62;83.62;100156.50;5087941;28;20080;-30
2022/06/03 03:08:27;;;;;;;14.32;6.97;;;;;;;18.79;84.89;100165.16;5088104;28;20032;-29
2022/06/03 03:11:14;;;;;;;10.95;6.72;;;;;;;18.70;84.26;100174.06;5087798;28;20095;-31
2022/06/03 03:14:06;;;;;;;12.23;7.28;;;;;;;18.53;84.38;100177.00;5087744;28;20780;-30
2022/06/03 03:16:53;;;;;;;10.93;6.78;;;;;;;18.59;83.36;100173.22;5088016;28;20159;-30
2022/06/03 03:19:55;;;;;;;16.48;7.32;;;;;;;18.58;85.64;100177.81;5069320;28;20032;-32
2022/06/03 03:22:26;;;;;;;14.65;7.05;;;;;;;18.64;84.48;100175.94;5069135;28;20046;-31
2022/06/03 03:25:11;;;;;;;10.68;7.35;;;;;;;18.61;85.22;100176.47;5087498;28;20036;-31
2022/06/03 03:27:49;;;;;;;11.50;7.65;;;;;;;18.74;85.99;100186.75;5069386;28;20053;-28
2022/06/03 03:30:30;;;;;;;13.90;7.78;;;;;;;18.81;86.32;100183.81;5069102;28;20035;-32
2022/06/03 03:33:20;;;;;;;14.30;8.23;;;;;;;19.07;85.66;100192.72;5086974;28;20043;-28
2022/06/03 03:35:59;;;;;;;13.30;7.75;;;;;;;19.12;84.58;100200.78;5087148;28;20168;-30
2022/06/03 03:38:43;;;;;;;12.43;7.03;;;;;;;19.03;82.48;100191.63;5087591;28;20690;-28
2022/06/03 03:41:33;;;;;;;12.48;7.47;;;;;;;18.84;82.41;100207.59;5087168;28;20062;-28
2022/06/03 03:44:22;;;;;;;12.68;6.90;;;;;;;18.65;84.30;100218.06;5087072;28;20044;-28
2022/06/03 03:47:12;;;;;;;12.77;6.65;;;;;;;18.74;85.21;100223.75;5087088;28;20024;-30
2022/06/03 03:49:58;;;;;;;13.02;6.82;;;;;;;18.84;83.81;100218.41;5087540;28;20056;-28
2022/06/03 03:52:33;;;;;;;12.13;7.75;;;;;;;18.85;84.44;100226.22;5087242;28;20085;-28
2022/06/03 03:55:36;;;;;;;11.80;6.95;;;;;;;18.82;85.17;100237.56;5087228;28;20078;-28
2022/06/03 03:58:32;;;;;;;10.20;6.95;;;;;;;18.52;87.46;100243.72;5087292;28;20024;-29
2022/06/03 04:01:32;;;;;;;13.80;7.63;;;;;;;18.44;89.57;100250.44;5086733;28;20036;-30
2022/06/03 04:04:10;;;;;;;16.30;8.18;;;;;;;18.51;90.31;100252.06;5068836;28;20044;-31
2022/06/03 04:06:57;;;;;;;14.00;8.13;;;;;;;18.91;88.75;100251.34;5068466;28;20047;-28
2022/06/03 04:09:34;;;;;;;12.30;9.15;;;;;;;19.15;87.61;100256.22;5068601;28;20039;-31
2022/06/03 04:12:00;;;;;;;14.00;8.05;;;;;;;19.04;88.64;100260.81;5068476;28;20657;-28
2022/06/03 04:15:02;;;;;;;11.75;8.48;;;;;;;19.50;84.93;100260.78;5086444;28;20028;-29
2022/06/03 04:17:33;;;;;;;12.98;8.15;;;;;;;19.70;84.66;100254.50;5086759;28;20035;-29
2022/06/03 04:20:12;;;;;;;13.27;8.55;;;;;;;19.88;83.99;100258.56;5087132;28;20032;-31
2022/06/03 04:23:19;;;;;;;12.00;7.72;;;;;;;20.07;83.04;100256.84;5067855;28;20028;-28
2022/06/03 04:25:44;;;;;;;;;;;;;;;20.07;83.35;100254.13;5052354;28;20044;-32
2022/06/03 04:28:28;;;;;;;12.57;8.30;;;;;;;20.07;82.49;100256.03;5086540;28;20005;-28
2022/06/03 04:31:08;;;;;;;12.77;8.65;;;;;;;19.92;83.90;100240.69;5086084;28;20254;-30
2022/06/03 04:34:08;;;;;;;11.68;8.13;;;;;;;20.06;82.60;100263.34;5068125;28;20040;-28
2022/06/03 04:36:58;;;;;;;10.45;7.63;;;;;;;20.27;81.02;100249.72;5086309;28;20106;-38
2022/06/03 04:39:54;;;;;;;12.68;7.90;;;;;;;20.31;81.17;100256.19;5067975;28;20039;-28
2022/06/03 04:42:38;;;;;;;11.98;7.78;;;;;;;20.32;82.11;100251.59;5086771;28;20070;-32
2022/06/03 04:45:22;;;;;;;12.23;7.57;;;;;;;20.53;82.76;100268.53;5086908;28;20029;-29
2022/06/03 04:47:47;;;;;;;11.20;7.25;;;;;;;20.72;83.69;100268.69;5086320;28;20605;-28
2022/06/03 04:50:31;;;;;;;9.48;6.70;;;;;;;21.00;82.08;100264.44;5086864;28;20033;-29
2022/06/03 04:53:34;;;;;;;15.82;7.20;;;;;;;21.16;79.57;100265.91;5068101;28;20082;-29
2022/06/03 04:56:19;;;;;;;10.57;6.72;;;;;;;21.27;79.70;100266.66;5067948;28;20090;-30
2022/06/03 04:59:15;;;;;;;11.95;7.30;;;;;;;21.45;77.81;100263.25;5086186;28;20028;-29
2022/06/03 05:02:09;;;;;;;12.65;6.43;;;;;;;21.48;76.09;100266.50;5086298;28;20081;-32
2022/06/03 05:05:09;;;;;;;10.98;6.47;;;;;;;21.60;76.41;100261.47;5067805;28;20031;-33
2022/06/03 05:08:09;;;;;;;12.63;6.63;;;;;;;21.58;78.15;100266.38;5068232;28;20059;-29
2022/06/03 05:10:55;;;;;;;11.43;7.07;;;;;;;21.86;74.56;100262.81;5086195;28;20058;-31
2022/06/03 05:13:30;;;;;;;10.70;6.85;;;;;;;21.90;76.97;100252.16;5086193;28;20039;-29
2022/06/03 05:16:17;;;;;;;11.48;6.55;;;;;;;21.93;75.95;100248.09;5071822;28;20574;-30
2022/06/03 05:18:52;;;;;;;14.57;6.70;;;;;;;22.10;74.60;100261.16;5089941;28;20036;-29
2022/06/03 05:22:05;;;;;;;12.32;6.53;;;;;;;22.31;73.31;100267.97;5090194;28;20032;-33
2022/06/03 05:24:56;;;;;;;10.02;5.97;;;;;;;22.44;73.09;100269.97;5033589;28;20124;-29
2022/06/03 05:27:53;;;;;;;11.85;6.68;;;;;;;22.54;73.39;100266.31;5090024;28;20030;-28
2022/06/03 05:30:30;;;;;;;11.43;7.40;;;;;;;22.80;72.47;100274.91;5080705;28;20028;-29
2022/06/03 05:33:14;;;;;;;10.65;6.75;;;;;;;23.13;72.15;100266.78;5068206;28;20135;-31
2022/06/03 05:35:46;;;;;;;10.82;6.32;;;;;;;23.20;70.81;100261.75;5069000;28;20563;-29
2022/06/03 05:38:40;;;;;;;10.68;5.75;;;;;;;23.31;69.16;100253.41;5049460;28;20044;-34
2022/06/03 05:44:36;;;;;;;10.70;6.47;;;;;;;23.46;68.97;100264.84;5069103;28;20124;-29
2022/06/03 05:47:06;;;;;;;9.00;6.15;;;;;;;23.54;69.67;100270.66;5068890;28;20488;-30
2022/06/03 05:49:50;;;;;;;9.90;6.00;;;;;;;23.88;66.92;100272.25;5069616;28;20028;-29
2022/06/03 05:52:35;;;;;;;10.07;6.38;;;;;;;23.87;67.85;100263.28;5068560;28;20086;-31
2022/06/03 05:55:22;;;;;;;10.93;5.90;;;;;;;24.24;67.02;100261.44;5069213;28;20059;-33
2022/06/03 05:58:01;;;;;;;11.63;6.22;;;;;;;24.37;66.07;100260.56;5069150;28;20033;-30
2022/06/03 06:00:43;;;;;;;13.60;6.43;;;;;;;24.27;65.23;100260.78;5069008;28;20817;-30
2022/06/03 06:03:11;;;;;;;10.23;5.82;;;;;;;24.29;65.29;100266.75;5050915;28;20036;-28
2022/06/03 06:05:55;;;;;;;11.52;6.55;;;;;;;24.29;66.03;100253.13;5050707;28;20027;-30
2022/06/03 06:08:29;;;;;;;9.88;6.07;;;;;;;24.66;66.20;100256.69;5050483;28;20754;-29
2022/06/03 06:11:10;;;;;;;9.65;5.38;;;;;;;24.90;62.45;100261.03;5049948;28;20039;-29
2022/06/03 06:13:44;;;;;;;12.52;5.57;;;;;;;24.99;62.69;100257.25;5050194;28;20068;-29
2022/06/03 06:16:28;;;;;;;9.98;5.55;;;;;;;25.08;61.76;100259.25;5050250;28;20488;-30
2022/06/03 06:19:10;;;;;;;12.48;5.85;;;;;;;25.23;61.64;100265.16;5067908;28;20032;-32
2022/06/03 06:21:44;;;;;;;10.30;5.75;;;;;;;25.20;61.35;100263.00;5049812;28;20033;-31
2022/06/03 06:24:28;;;;;;;10.05;6.07;;;;;;;25.29;60.37;100251.34;5068314;28;20037;-32
2022/06/03 06:27:28;;;;;;;9.13;6.18;;;;;;;25.57;61.22;100258.25;5066638;28;20037;-31
2022/06/03 06:30:15;;;;;;;9.27;5.60;;;;;;;25.70;60.69;100244.78;5068234;28;20047;-31
2022/06/03 06:33:02;;;;;;;9.43;5.65;;;;;;;25.85;60.59;100252.56;5068115;28;20013;-30
2022/06/03 06:35:44;;;;;;;9.25;5.57;;;;;;;26.02;60.15;100257.28;5068100;28;20056;-37
2022/06/03 06:38:22;;;;;;;10.43;5.78;;;;;;;26.00;58.71;100259.53;5049716;28;20032;-29
2022/06/03 06:40:57;;;;;;;8.85;5.55;;;;;;;26.08;57.68;100264.22;5067742;28;20097;-28
2022/06/03 06:43:57;;;;;;;10.27;6.13;;;;;;;26.22;57.82;100266.81;5067819;28;20029;-34
2022/06/03 06:46:43;;;;;;;11.48;6.30;;;;;;;26.50;60.04;100255.56;5035944;28;21133;-30
2022/06/03 06:49:18;;;;;;;10.93;6.10;;;;;;;26.42;57.95;100241.59;5053653;28;20037;-29
2022/06/03 06:52:13;;;;;;;10.90;5.95;;;;;;;26.41;58.50;100236.44;5067682;28;20774;-29
2022/06/03 06:55:01;;;;;;;7.90;6.10;;;;;;;26.53;59.28;100255.75;5067191;28;20024;-31
2022/06/03 06:57:32;;;;;;;10.05;6.60;;;;;;;26.85;57.31;100246.28;5048939;28;20186;-29
2022/06/03 07:00:07;;;;;;;11.13;6.18;;;;;;;26.92;56.78;100266.88;5067620;28;20039;-30
2022/06/03 07:03:21;;;;;;;13.68;6.07;;;;;;;26.88;56.53;100260.44;5067224;28;20131;-30
2022/06/03 07:05:55;;;;;;;11.57;6.85;;;;;;;26.94;58.73;100264.59;5029649;28;20041;-30
2022/06/03 07:08:26;;;;;;;8.73;6.30;;;;;;;27.05;57.76;100233.03;5049644;28;20029;-28
2022/06/03 07:10:59;;;;;;;11.48;6.60;;;;;;;27.40;56.84;100265.81;5049126;28;20491;-29
2022/06/03 07:13:46;;;;;;;10.32;6.38;;;;;;;27.37;55.13;100261.00;5048756;28;20028;-31
2022/06/03 07:19:48;;;;;;;9.10;6.07;;;;;;;27.37;55.54;100250.03;5067241;28;20591;-29
2022/06/03 07:22:36;;;;;;;9.55;6.15;;;;;;;27.33;56.10;100249.09;5067312;28;20041;-30
2022/06/03 07:25:15;;;;;;;11.48;6.55;;;;;;;27.78;55.74;100249.38;5048983;28;20039;-29
2022/06/03 07:27:43;;;;;;;11.13;6.68;;;;;;;28.08;54.38;100267.81;5048961;28;20067;-35
2022/06/03 07:30:12;;;;;;;8.63;5.75;;;;;;;28.21;54.50;100261.25;5048609;28;20025;-32
2022/06/03 07:32:49;;;;;;;8.07;5.63;;;;;;;28.20;52.81;100244.00;5066785;28;20538;-30
2022/06/03 07:35:34;;;;;;;10.60;6.07;;;;;;;28.41;51.01;100260.47;5066914;28;20120;-28
2022/06/03 07:38:15;;;;;;;10.50;5.53;;;;;;;28.33;53.50;100255.84;5066281;28;20028;-32
2022/06/03 07:41:05;;;;;;;10.90;5.50;;;;;;;28.42;50.13;100262.06;5048293;28;20028;-33
2022/06/03 07:43:36;;;;;;;11.55;6.43;;;;;;;28.58;52.01;100256.00;5066908;28;20032;-28
2022/06/03 07:46:01;;;;;;;10.95;6.10;;;;;;;28.73;51.26;100255.41;5066876;28;20115;-29
2022/06/03 07:48:29;;;;;;;11.32;6.25;;;;;;;28.75;51.02;100246.81;5066569;28;20107;-28
2022/06/03 07:50:59;;;;;;;9.25;5.88;;;;;;;29.04;51.00;100237.66;5031829;28;20504;-30
2022/06/03 07:53:50;;;;;;;11.55;6.47;;;;;;;29.05;51.05;100245.56;5048779;28;20113;-31
2022/06/03 07:56:26;;;;;;;9.35;6.07;;;;;;;29.24;50.00;100234.06;5048404;28;20039;-32
2022/06/03 07:58:56;;;;;;;9.60;5.28;;;;;;;29.34;49.16;100234.75;5066325;28;20025;-29
2022/06/03 08:01:23;;;;;;;9.00;6.18;;;;;;;29.33;49.16;100250.44;5066341;28;20036;-29
2022/06/03 08:03:49;;;;;;;11.65;5.95;;;;;;;29.62;50.14;100241.19;5048349;28;20028;-31
2022/06/03 08:06:14;;;;;;;9.90;5.75;;;;;;;29.72;51.36;100244.66;5066329;28;20043;-30
2022/06/03 08:11:33;;;;;;;10.73;5.85;;;;;;;30.20;48.79;100245.75;5066522;28;20043;-33
2022/06/03 08:14:01;;;;;;;9.27;5.80;;;;;;;30.35;46.77;100250.56;5066429;28;20031;-31
2022/06/03 08:16:35;;;;;;;10.20;5.35;;;;;;;30.68;43.60;100246.78;5048225;28;20040;-35
2022/06/03 08:19:08;;;;;;;12.50;7.68;;;;;;;30.84;45.53;100244.84;5048042;28;20024;-30
2022/06/03 08:21:41;;;;;;;8.05;5.60;;;;;;;30.44;44.41;100234.72;5066229;28;20167;-29
2022/06/03 08:24:11;;;;;;;11.38;5.88;;;;;;;30.78;47.96;100235.25;5066354;28;20029;-31
2022/06/03 08:26:42;;;;;;;9.30;5.40;;;;;;;30.83;45.85;100232.25;5066106;28;20039;-29
2022/06/03 08:29:19;;;;;;;11.98;5.38;;;;;;;30.93;44.05;100243.94;5066491;28;20020;-30
2022/06/03 08:31:47;;;;;;;10.18;5.43;;;;;;;30.84;43.88;100233.84;5048038;28;20097;-30
2022/06/03 08:34:26;;;;;;;9.02;5.07;;;;;;;31.12;43.76;100227.53;5066583;28;20024;-34
2022/06/03 08:36:54;;;;;;;8.88;4.90;;;;;;;31.14;42.66;100221.66;5065478;28;20040;-30
2022/06/03 08:39:26;;;;;;;9.48;5.18;;;;;;;31.46;45.09;100225.25;5048390;28;20028;-29
2022/06/03 08:42:05;;;;;;;10.00;5.15;;;;;;;31.70;42.03;100235.28;5066198;28;20116;-33
2022/06/03 08:45:08;;;;;;;10.85;5.15;;;;;;;31.77;40.88;100229.94;5065662;28;20381;-31
2022/06/03 08:47:51;;;;;;;8.25;5.55;;;;;;;31.94;42.02;100217.72;5048086;28;20036;-30
2022/06/03 08:50:25;;;;;;;9.60;5.45;;;;;;;32.23;42.26;100226.63;5069077;28;20025;-33
2022/06/03 08:53:10;;;;;;;8.05;4.68;;;;;;;32.33;39.50;100231.56;5069754;28;20518;-31
2022/06/03 08:56:07;;;;;;;7.93;4.88;;;;;;;32.49;38.73;100225.16;5051529;28;20060;-34
2022/06/03 08:58:56;;;;;;;8.70;5.00;;;;;;;32.71;39.70;100221.69;5053312;28;20041;-36
2022/06/03 09:01:39;;;;;;;7.82;5.25;;;;;;;32.59;39.51;100224.63;5051738;28;20067;-29
2022/06/03 09:04:14;;;;;;;9.43;4.90;;;;;;;32.33;37.49;100217.78;5069776;28;20032;-31
2022/06/03 09:06:48;;;;;;;7.15;4.78;;;;;;;32.18;39.26;100204.84;5051501;28;20472;-30
2022/06/03 09:09:52;;;;;;;10.05;4.85;;;;;;;32.42;39.15;100223.06;5069463;28;20032;-29
2022/06/03 09:12:30;;;;;;;9.57;4.70;;;;;;;32.43;38.25;100217.19;5069222;28;20028;-31
2022/06/03 09:15:11;;;;;;;13.48;5.18;;;;;;;32.68;37.53;100203.13;5051547;28;20033;-31
2022/06/03 09:17:42;;;;;;;9.48;5.22;;;;;;;32.68;37.67;100210.59;5069899;28;20024;-30
2022/06/03 09:20:24;;;;;;;10.73;4.65;;;;;;;32.60;38.06;100204.94;5069478;28;20032;-29
2022/06/03 09:22:56;;;;;;;9.85;5.10;;;;;;;32.70;38.25;100213.81;5051079;28;20033;-31
2022/06/03 09:25:22;;;;;;;8.27;4.72;;;;;;;32.63;37.18;100211.69;5069415;28;20039;-31
2022/06/03 09:27:48;;;;;;;7.53;4.78;;;;;;;32.82;37.23;100210.88;5069405;28;20028;-29
2022/06/03 09:30:31;;;;;;;9.23;5.13;;;;;;;32.94;37.11;100218.97;5051495;28;20033;-31
2022/06/03 09:32:59;;;;;;;8.07;4.88;;;;;;;32.74;37.96;100204.41;5068969;28;20496;-35
2022/06/03 09:35:27;;;;;;;9.50;4.72;;;;;;;32.81;36.88;100215.56;5051052;28;20063;-29
2022/06/03 09:37:58;;;;;;;8.10;4.82;;;;;;;32.50;36.40;100222.06;5051007;28;20024;-29
2022/06/03 09:40:41;;;;;;;7.63;4.35;;;;;;;32.67;36.16;100220.03;5051041;28;20393;-32
2022/06/03 09:43:22;;;;;;;8.50;4.60;;;;;;;32.76;36.67;100229.69;5050993;28;20055;-30
2022/06/03 09:45:51;;;;;;;7.32;4.63;;;;;;;33.14;37.71;100233.59;5068778;28;20043;-33
2022/06/03 09:48:20;;;;;;;8.23;4.55;;;;;;;33.06;36.03;100229.06;5050848;28;20055;-32
2022/06/03 09:50:49;;;;;;;7.10;4.50;;;;;;;33.60;34.65;100232.75;5050402;28;20043;-30
2022/06/03 09:53:20;;;;;;;8.60;4.55;;;;;;;33.66;34.49;100236.03;5050658;28;20412;-29
2022/06/03 09:55:53;;;;;;;8.45;4.90;;;;;;;33.68;34.58;100240.00;5050490;28;20111;-31
2022/06/03 09:58:23;;;;;;;9.77;4.90;;;;;;;33.14;33.77;100217.00;5050477;28;20020;-30
2022/06/03 10:00:52;;;;;;;10.77;4.80;;;;;;;33.01;34.39;100226.59;5068142;28;20029;-35
2022/06/03 10:03:18;;;;;;;8.90;4.88;;;;;;;32.88;35.27;100220.44;5050522;28;20060;-34
2022/06/03 10:05:49;;;;;;;8.70;4.60;;;;;;;33.19;34.44;100236.03;5050446;28;20094;-32
2022/06/03 10:08:19;;;;;;;20.63;13.05;;;;;;;33.58;35.06;100241.41;5050381;28;20133;-32
2022/06/03 10:13:31;;;;;;;8.88;4.70;;;;;;;34.48;33.29;100230.84;5068688;28;20107;-34
2022/06/03 10:15:59;;;;;;;6.97;4.82;;;;;;;34.79;32.20;100238.72;5050313;28;20029;-30
2022/06/03 10:18:41;;;;;;;8.43;4.30;;;;;;;35.01;31.69;100230.63;5068433;28;20079;-33
2022/06/03 10:21:07;;;;;;;7.82;4.55;;;;;;;35.50;31.69;100246.13;5049902;28;20131;-31
2022/06/03 10:23:35;;;;;;;9.18;4.28;;;;;;;35.45;32.51;100231.81;5068106;28;20518;-33
2022/06/03 10:26:03;;;;;;;8.15;4.75;;;;;;;34.96;31.76;100230.97;5068098;28;20555;-31
2022/06/03 10:28:35;;;;;;;7.63;4.85;;;;;;;34.99;31.40;100241.31;5050170;28;20017;-31
2022/06/03 10:31:15;;;;;;;7.13;4.50;;;;;;;35.62;32.82;100233.94;5049816;28;20033;-30
2022/06/03 10:33:52;;;;;;;7.30;4.18;;;;;;;35.53;31.37;100225.16;5049767;28;20038;-31
2022/06/03 10:36:17;;;;;;;7.80;4.40;;;;;;;35.51;29.55;100231.09;5049712;28;20048;-33
2022/06/03 10:38:48;;;;;;;10.00;5.43;;;;;;;35.57;32.54;100221.25;5067768;28;20090;-32
2022/06/03 10:41:14;;;;;;;8.38;4.60;;;;;;;35.71;30.64;100222.53;5049924;28;20032;-31
2022/06/03 10:43:41;;;;;;;6.95;4.10;;;;;;;36.16;28.46;100226.78;5068144;28;20028;-30
2022/06/03 10:46:14;;;;;;;;;;;;;;;36.72;28.95;100232.16;5068110;28;20036;-29
2022/06/03 10:48:40;;;;;;;9.98;4.40;;;;;;;35.86;29.98;100215.09;5049318;28;19908;-33
2022/06/03 11:01:06;;;;;;;7.10;3.90;;;;;;;35.00;29.62;100220.72;5049785;28;20024;-31
2022/06/03 11:02:30;;;;;;;7.05;4.13;;;;;;;34.79;29.75;100211.03;5067452;28;20089;-31
2022/06/03 11:05:34;;;;;;;6.93;4.10;;;;;;;34.46;31.18;100213.81;5049068;28;20040;-31
2022/06/03 11:08:09;;;;;;;10.15;7.80;;;;;;;33.53;32.35;100211.31;5067598;28;20381;-30
2022/06/03 11:10:55;;;;;;;9.93;5.13;;;;;;;33.32;32.20;100208.19;5049069;28;20094;-35
2022/06/03 11:13:30;;;;;;;8.55;3.97;;;;;;;33.01;35.54;100213.56;5066605;28;20028;-32
2022/06/03 11:15:58;;;;;;;14.45;5.50;;;;;;;31.49;38.23;100232.81;5067249;28;20044;-31
2022/06/03 11:18:32;;;;;;;11.23;5.63;;;;;;;30.10;45.74;100218.72;5067124;28;20024;-33
2022/06/03 11:21:15;;;;;;;10.40;5.22;;;;;;;29.58;47.22;100212.78;5049256;28;20040;-29
2022/06/03 11:23:41;;;;;;;9.57;5.25;;;;;;;29.47;46.50;100205.38;5048974;28;20027;-31
2022/06/03 11:26:07;;;;;;;10.07;5.05;;;;;;;29.24;48.11;100211.31;5067652;28;20044;-32
2022/06/03 11:28:51;;;;;;;10.40;5.05;;;;;;;29.27;47.20;100209.81;5048852;28;20028;-40
2022/06/03 11:31:29;;;;;;;8.70;4.45;;;;;;;29.39;45.23;100199.63;5048882;28;20073;-29
2022/06/03 11:34:08;;;;;;;9.07;4.85;;;;;;;29.67;44.87;100198.94;5048608;28;20033;-29
2022/06/03 11:36:41;;;;;;;9.00;5.35;;;;;;;29.83;42.86;100185.31;5045295;28;20048;-35
2022/06/03 11:39:29;;;;;;;7.05;4.57;;;;;;;29.97;43.04;100205.00;5046747;28;20024;-30
2022/06/03 11:42:11;;;;;;;9.55;4.85;;;;;;;30.16;43.03;100198.06;5046099;28;20532;-30
2022/06/03 11:44:41;;;;;;;10.30;5.25;;;;;;;30.26;44.12;100192.09;5045189;28;20090;-32
2022/06/03 11:47:15;;;;;;;10.70;4.82;;;;;;;30.25;43.46;100180.28;5046918;28;20043;-31
2022/06/03 11:49:41;;;;;;;7.35;4.68;;;;;;;30.63;44.94;100186.47;5046684;28;20042;-31
2022/06/03 11:52:08;;;;;;;12.80;9.02;;;;;;;30.71;44.70;100184.69;5045233;28;20028;-30
2022/06/03 11:54:33;;;;;;;7.10;5.10;;;;;;;30.83;44.44;100188.22;5045149;28;20029;-41
2022/06/03 11:57:02;;;;;;;8.27;4.47;;;;;;;30.80;41.75;100197.16;5044766;28;20029;-31
2022/06/03 12:00:00;;;;;;;10.15;5.80;;;;;;;31.33;41.42;100204.44;5046811;28;20497;-35
2022/06/03 12:02:41;;;;;;;9.90;4.70;;;;;;;31.47;43.51;100210.31;5045119;28;20087;-29
2022/06/03 12:05:15;;;;;;;9.73;4.97;;;;;;;30.92;46.95;100209.31;5045068;28;20759;-30
2022/06/03 12:07:49;;;;;;;10.88;6.95;;;;;;;30.04;47.17;100218.97;5045144;28;20094;-34
2022/06/03 12:10:37;;;;;;;10.23;5.32;;;;;;;29.59;47.39;100219.91;5046509;28;20087;-29
2022/06/03 12:13:15;;;;;;;8.70;5.10;;;;;;;29.31;47.83;100224.47;5040513;28;20033;-31
2022/06/03 12:15:48;;;;;;;9.95;4.80;;;;;;;29.07;47.83;100215.00;5044576;28;20044;-30
2022/06/03 12:18:13;;;;;;;26.35;19.80;;;;;;;28.22;49.82;100210.78;5044910;28;20035;-30
2022/06/03 12:20:48;;;;;;;13.85;10.18;;;;;;;27.78;49.92;100205.53;5046005;28;20025;-31
2022/06/03 12:23:33;;;;;;;7.95;4.47;;;;;;;27.83;50.13;100204.56;5044836;28;20025;-30
2022/06/03 12:25:59;;;;;;;6.13;4.30;;;;;;;27.99;48.84;100200.13;5045814;28;20029;-29
2022/06/03 12:28:29;;;;;;;9.70;5.72;;;;;;;28.40;46.90;100195.78;5046284;28;20039;-35
2022/06/03 12:31:03;;;;;;;7.22;4.22;;;;;;;28.47;47.45;100197.19;5045946;28;20035;-28
2022/06/03 12:34:07;;;;;;;7.93;5.05;;;;;;;28.78;48.02;100197.53;5044654;28;20025;-31
2022/06/03 12:36:34;;;;;;;9.60;4.60;;;;;;;29.49;45.37;100187.38;5064807;28;20521;-36
2022/06/03 12:39:04;;;;;;;8.13;4.78;;;;;;;29.97;42.88;100190.44;5066090;28;20078;-30
2022/06/03 12:41:45;;;;;;;6.00;4.82;;;;;;;30.21;44.19;100187.63;5065984;28;20044;-32
2022/06/03 12:44:23;;;;;;;7.63;3.92;;;;;;;30.70;41.90;100183.91;5065854;28;20518;-32
2022/06/03 12:46:49;;;;;;;6.30;4.50;;;;;;;30.78;43.69;100174.69;5065748;28;20059;-33